Time;durP1;ratioP1;P1;durP2;ratioP2;P2;SDS_P1;SDS_P2;PMS_P1;PMS_P2;Temp;Humidity;BMP_temperature;BMP_pressure;BME280_temperature;BME280_humidity;BME280_pressure;Samples;Min_cycle;Max_cycle;Signal;HPM_P1;HPM_P2
2020/12/28 00:01:33;;;;;;;19.73;5.78;;;17.20;53.50;;;;;;5009321;28;20040;-74
2020/12/28 00:04:00;;;;;;;27.67;6.32;;;16.90;53.50;;;;;;5007987;28;20132;-74
2020/12/28 00:06:26;;;;;;;29.75;6.57;;;16.90;53.40;;;;;;5015960;28;20071;-74
2020/12/28 00:08:53;;;;;;;36.22;8.80;;;16.80;53.50;;;;;;5015431;28;20502;-74
2020/12/28 00:11:20;;;;;;;24.35;7.22;;;16.60;54.00;;;;;;5011271;28;20037;-74
2020/12/28 00:13:47;;;;;;;23.05;5.82;;;16.50;54.30;;;;;;5010983;28;20026;-73
2020/12/28 00:16:14;;;;;;;25.58;6.45;;;16.20;54.70;;;;;;5014279;28;20453;-73
2020/12/28 00:18:44;;;;;;;29.60;8.55;;;16.00;55.30;;;;;;5017639;28;20042;-74
2020/12/28 00:21:11;;;;;;;26.50;5.47;;;15.90;55.70;;;;;;5023045;28;20057;-74
2020/12/28 00:23:37;;;;;;;22.60;5.72;;;15.70;56.30;;;;;;5027677;28;20026;-74
2020/12/28 00:26:04;;;;;;;30.88;8.77;;;15.50;56.50;;;;;;5015639;28;20025;-74
2020/12/28 00:28:30;;;;;;;18.20;6.55;;;15.50;56.40;;;;;;5009889;28;20033;-75
2020/12/28 00:30:57;;;;;;;16.42;4.43;;;15.30;56.70;;;;;;5013593;28;20041;-73
2020/12/28 00:33:23;;;;;;;19.17;4.60;;;15.20;57.20;;;;;;5013005;28;20111;-74
2020/12/28 00:35:49;;;;;;;24.77;7.97;;;15.10;57.40;;;;;;5019946;28;20029;-74
2020/12/28 00:38:16;;;;;;;20.25;7.22;;;15.00;57.50;;;;;;5023571;28;20404;-74
2020/12/28 00:40:42;;;;;;;22.83;6.53;;;14.90;57.20;;;;;;5015820;28;20375;-75
2020/12/28 00:43:09;;;;;;;29.10;7.00;;;14.80;58.40;;;;;;5011621;28;20029;-74
2020/12/28 00:45:35;;;;;;;24.45;8.50;;;14.60;58.60;;;;;;5012848;28;20022;-74
2020/12/28 00:48:02;;;;;;;19.55;5.28;;;14.60;58.50;;;;;;5010342;28;20025;-74
2020/12/28 00:50:28;;;;;;;17.13;4.25;;;14.60;58.00;;;;;;5008059;28;20048;-74
2020/12/28 00:52:55;;;;;;;11.55;4.30;;;14.50;58.00;;;;;;5026594;28;20026;-73
2020/12/28 00:55:22;;;;;;;18.40;4.75;;;14.50;57.90;;;;;;5009781;28;20045;-72
2020/12/28 00:57:48;;;;;;;22.73;4.88;;;14.40;58.40;;;;;;5010279;28;20117;-73
2020/12/28 01:00:15;;;;;;;38.08;7.72;;;14.40;58.40;;;;;;5010493;28;20034;-72
2020/12/28 01:02:41;;;;;;;22.58;5.00;;;14.40;58.10;;;;;;5012262;28;20022;-73
2020/12/28 01:05:07;;;;;;;32.90;6.78;;;14.30;58.30;;;;;;5009640;28;20030;-73
2020/12/28 01:07:34;;;;;;;22.38;5.93;;;14.30;58.50;;;;;;5011389;28;20049;-73
2020/12/28 01:10:00;;;;;;;22.58;5.55;;;14.30;58.40;;;;;;5019424;28;20025;-73
2020/12/28 01:12:27;;;;;;;24.50;6.20;;;14.20;58.70;;;;;;5027524;28;20100;-74
2020/12/28 01:14:53;;;;;;;31.92;7.15;;;14.20;58.00;;;;;;5014325;28;20053;-76
2020/12/28 01:17:19;;;;;;;25.55;5.97;;;14.20;58.20;;;;;;5010452;28;20472;-72
2020/12/28 01:19:46;;;;;;;27.98;6.55;;;14.20;58.00;;;;;;5026497;28;20036;-73
2020/12/28 01:22:12;;;;;;;26.45;7.07;;;14.00;58.60;;;;;;5014241;28;20022;-73
2020/12/28 01:24:38;;;;;;;24.42;5.95;;;13.90;58.60;;;;;;5016150;28;20030;-75
2020/12/28 01:27:05;;;;;;;27.92;6.72;;;13.90;58.10;;;;;;5012174;28;20053;-73
2020/12/28 01:29:31;;;;;;;31.42;8.00;;;13.90;58.60;;;;;;5010778;28;20351;-72
2020/12/28 01:31:58;;;;;;;25.85;5.97;;;13.90;58.70;;;;;;5010429;28;20037;-74
2020/12/28 01:34:24;;;;;;;44.05;9.27;;;13.90;58.40;;;;;;5012922;28;20026;-72
2020/12/28 01:36:50;;;;;;;29.52;7.80;;;13.90;58.50;;;;;;5011845;28;20026;-73
2020/12/28 01:39:17;;;;;;;24.75;6.07;;;13.70;59.30;;;;;;5005459;28;20022;-73
2020/12/28 01:41:43;;;;;;;24.30;5.57;;;13.60;59.70;;;;;;5010886;28;20033;-72
2020/12/28 01:44:10;;;;;;;22.77;6.32;;;13.60;58.80;;;;;;5010606;28;20034;-72
2020/12/28 01:46:36;;;;;;;24.25;5.57;;;13.60;59.00;;;;;;5010032;28;20017;-72
2020/12/28 01:49:03;;;;;;;30.50;7.95;;;13.60;59.50;;;;;;5010280;28;20142;-73
2020/12/28 01:51:29;;;;;;;17.52;5.80;;;13.60;59.60;;;;;;5013848;28;20426;-73
2020/12/28 01:53:56;;;;;;;15.93;5.63;;;13.40;59.90;;;;;;5008699;28;20029;-73
2020/12/28 01:56:23;;;;;;;18.95;4.68;;;13.40;60.00;;;;;;5013726;28;20529;-72
2020/12/28 01:58:50;;;;;;;24.77;6.65;;;13.30;60.00;;;;;;5011009;28;20030;-72
2020/12/28 02:01:17;;;;;;;22.80;5.63;;;13.30;59.70;;;;;;5008580;28;20463;-72
2020/12/28 02:03:44;;;;;;;23.23;5.85;;;13.30;59.70;;;;;;5009288;28;20033;-73
2020/12/28 02:06:11;;;;;;;13.65;5.57;;;13.30;59.90;;;;;;5011852;28;20026;-72
2020/12/28 02:08:37;;;;;;;20.35;6.53;;;13.20;60.20;;;;;;5011195;28;20113;-72
2020/12/28 02:11:04;;;;;;;17.05;5.25;;;13.10;60.60;;;;;;5007440;28;20169;-72
2020/12/28 02:13:30;;;;;;;16.65;5.13;;;12.90;61.80;;;;;;5008064;28;20018;-73
2020/12/28 02:15:56;;;;;;;17.50;6.07;;;12.90;61.10;;;;;;5009964;28;20022;-73
2020/12/28 02:18:23;;;;;;;18.83;5.38;;;12.90;60.90;;;;;;5019487;28;20143;-73
2020/12/28 02:20:50;;;;;;;16.00;5.60;;;12.90;60.40;;;;;;5008787;28;20026;-73
2020/12/28 02:23:16;;;;;;;14.95;4.97;;;12.90;60.70;;;;;;5013574;28;20471;-72
2020/12/28 02:25:42;;;;;;;13.00;3.97;;;12.80;60.80;;;;;;5005137;28;20105;-72
2020/12/28 02:28:09;;;;;;;14.55;4.55;;;12.80;61.00;;;;;;5014685;28;20026;-73
2020/12/28 02:30:35;;;;;;;23.77;5.00;;;12.70;60.70;;;;;;5015721;28;20105;-76
2020/12/28 02:33:02;;;;;;;15.25;5.30;;;12.80;59.80;;;;;;5009017;28;20026;-73
2020/12/28 02:35:28;;;;;;;19.17;5.25;;;12.80;59.90;;;;;;5016624;28;20134;-73
2020/12/28 02:37:55;;;;;;;20.50;5.45;;;12.80;60.30;;;;;;5012170;28;20795;-73
2020/12/28 02:40:21;;;;;;;22.50;8.07;;;12.70;60.10;;;;;;5010637;28;20029;-73
2020/12/28 02:42:47;;;;;;;24.40;5.90;;;12.70;59.50;;;;;;5013031;28;20499;-73
2020/12/28 02:45:14;;;;;;;18.40;6.25;;;12.70;59.60;;;;;;5012910;28;20643;-72
2020/12/28 02:47:40;;;;;;;28.13;6.93;;;12.80;60.00;;;;;;5004834;28;20058;-74
2020/12/28 02:50:07;;;;;;;16.40;5.35;;;12.80;60.20;;;;;;5009233;28;20025;-72
2020/12/28 02:52:33;;;;;;;8.70;4.07;;;12.70;60.00;;;;;;5009930;28;20518;-73
2020/12/28 02:54:59;;;;;;;16.38;4.60;;;12.50;60.70;;;;;;5013684;28;20044;-73
2020/12/28 02:57:26;;;;;;;14.43;5.20;;;12.50;60.00;;;;;;5010381;28;20032;-74
2020/12/28 02:59:52;;;;;;;12.18;5.07;;;12.50;60.60;;;;;;5011224;28;20033;-74
2020/12/28 03:02:18;;;;;;;13.82;7.22;;;12.50;60.20;;;;;;5023457;28;20447;-73
2020/12/28 03:04:45;;;;;;;14.52;3.97;;;12.40;60.40;;;;;;5014715;28;20220;-73
2020/12/28 03:07:11;;;;;;;17.08;5.20;;;12.40;60.20;;;;;;5008763;28;20026;-73
2020/12/28 03:09:37;;;;;;;16.63;3.67;;;12.40;60.70;;;;;;5027863;28;20452;-74
2020/12/28 03:12:04;;;;;;;9.98;3.65;;;12.40;61.10;;;;;;5006137;28;20439;-73
2020/12/28 03:14:30;;;;;;;10.10;4.78;;;12.30;61.30;;;;;;5009685;28;20030;-73
2020/12/28 03:16:57;;;;;;;9.48;3.80;;;12.20;61.80;;;;;;5014516;28;20036;-73
2020/12/28 03:19:23;;;;;;;7.28;3.42;;;12.30;61.50;;;;;;5009190;28;20034;-73
2020/12/28 03:21:49;;;;;;;9.70;3.40;;;12.30;61.80;;;;;;5012081;28;20014;-74
2020/12/28 03:24:16;;;;;;;18.73;5.57;;;12.30;62.20;;;;;;5010285;28;20029;-74
2020/12/28 03:26:42;;;;;;;14.18;4.57;;;12.30;61.40;;;;;;5012093;28;20475;-75
2020/12/28 03:29:08;;;;;;;15.10;4.22;;;12.40;60.60;;;;;;5013838;28;20101;-74
2020/12/28 03:31:35;;;;;;;11.23;4.70;;;12.50;60.20;;;;;;5009894;28;20090;-74
2020/12/28 03:34:01;;;;;;;16.65;5.30;;;12.50;60.20;;;;;;5010524;28;20475;-77
2020/12/28 03:36:28;;;;;;;11.93;4.38;;;12.40;60.60;;;;;;5012864;28;20116;-74
2020/12/28 03:38:54;;;;;;;14.27;5.60;;;12.40;60.10;;;;;;5016015;28;20028;-74
2020/12/28 03:41:20;;;;;;;13.50;4.80;;;12.40;60.10;;;;;;5011194;28;20029;-76
2020/12/28 03:43:47;;;;;;;6.63;3.08;;;12.20;61.30;;;;;;5019527;28;20101;-74
2020/12/28 03:46:13;;;;;;;15.18;5.93;;;12.10;61.60;;;;;;5006711;28;20486;-74
2020/12/28 03:48:40;;;;;;;10.00;5.25;;;12.00;62.50;;;;;;5007278;28;20027;-74
2020/12/28 03:51:06;;;;;;;17.70;5.28;;;12.00;62.40;;;;;;5010066;28;20076;-73
2020/12/28 03:53:32;;;;;;;14.13;3.95;;;12.10;62.00;;;;;;5011258;28;20030;-73
2020/12/28 03:55:59;;;;;;;18.30;4.88;;;12.10;61.30;;;;;;5009597;28;20073;-75
2020/12/28 03:58:25;;;;;;;15.50;4.28;;;12.20;60.80;;;;;;5011594;28;20036;-76
2020/12/28 04:00:52;;;;;;;8.07;3.97;;;12.30;61.30;;;;;;5012247;28;20065;-73
2020/12/28 04:03:18;;;;;;;7.80;3.83;;;12.30;60.50;;;;;;5022891;28;20355;-76
2020/12/28 04:05:44;;;;;;;10.80;3.70;;;12.20;61.00;;;;;;5016282;28;20348;-75
2020/12/28 04:08:11;;;;;;;11.23;4.03;;;12.00;62.40;;;;;;5013670;28;20372;-76
2020/12/28 04:10:37;;;;;;;13.48;3.78;;;12.00;62.50;;;;;;5013979;28;20022;-75
2020/12/28 04:13:04;;;;;;;7.45;3.22;;;12.00;63.00;;;;;;5015472;28;20041;-76
2020/12/28 04:15:30;;;;;;;6.63;4.22;;;12.00;62.50;;;;;;5014331;28;20022;-77
2020/12/28 04:17:56;;;;;;;9.48;4.15;;;12.00;62.10;;;;;;5016599;28;20092;-75
2020/12/28 04:20:23;;;;;;;7.88;4.53;;;12.10;62.00;;;;;;5013167;28;20030;-73
2020/12/28 04:22:49;;;;;;;10.43;3.75;;;12.10;62.00;;;;;;5012207;28;20079;-75
2020/12/28 04:25:16;;;;;;;8.30;3.78;;;12.10;62.20;;;;;;5015277;28;20463;-76
2020/12/28 04:27:42;;;;;;;6.55;2.97;;;12.10;62.30;;;;;;5015114;28;20036;-76
2020/12/28 04:30:09;;;;;;;8.75;4.53;;;12.10;62.00;;;;;;5013185;28;20037;-76
2020/12/28 04:32:36;;;;;;;10.40;3.72;;;12.20;61.60;;;;;;5015591;28;20018;-76
2020/12/28 04:35:03;;;;;;;8.30;3.92;;;12.20;61.00;;;;;;5015368;28;20455;-76
2020/12/28 04:37:29;;;;;;;11.80;4.20;;;12.40;60.60;;;;;;5007971;28;20125;-76
2020/12/28 04:39:56;;;;;;;5.95;3.17;;;12.20;61.70;;;;;;5009258;28;20052;-77
2020/12/28 04:42:26;;;;;;;15.75;4.60;;;12.10;61.40;;;;;;5016491;28;20097;-76
2020/12/28 04:44:54;;;;;;;10.15;4.03;;;12.20;60.90;;;;;;5009012;28;20021;-75
2020/12/28 04:47:21;;;;;;;5.75;3.08;;;12.30;60.60;;;;;;5013000;28;20030;-75
2020/12/28 04:49:48;;;;;;;7.75;3.72;;;12.20;61.00;;;;;;5015562;28;20452;-77
2020/12/28 04:52:15;;;;;;;9.20;3.85;;;12.20;61.20;;;;;;5009164;28;20467;-73
2020/12/28 04:54:42;;;;;;;6.47;3.80;;;12.30;60.80;;;;;;5010647;28;20021;-73
2020/12/28 04:57:12;;;;;;;7.47;4.05;;;12.20;61.10;;;;;;5003503;28;20045;-74
2020/12/28 04:59:38;;;;;;;5.50;3.38;;;12.10;62.00;;;;;;5014826;28;20030;-73
2020/12/28 05:02:06;;;;;;;8.80;3.45;;;12.10;61.80;;;;;;5010657;28;20076;-73
2020/12/28 05:04:33;;;;;;;5.45;3.38;;;12.20;61.70;;;;;;5007709;28;20041;-73
2020/12/28 05:07:07;;;;;;;8.35;3.63;;;12.20;62.20;;;;;;5008864;28;20022;-74
2020/12/28 05:09:34;;;;;;;5.15;3.10;;;12.20;61.80;;;;;;5005197;28;20021;-73
2020/12/28 05:12:10;;;;;;;8.85;3.78;;;12.20;61.80;;;;;;5012068;28;20052;-73
2020/12/28 05:14:37;;;;;;;7.95;3.78;;;12.30;61.50;;;;;;5005377;28;20044;-73
2020/12/28 05:17:08;;;;;;;9.50;3.22;;;12.30;61.40;;;;;;5012517;28;20026;-73
2020/12/28 05:19:35;;;;;;;8.02;3.22;;;12.30;61.60;;;;;;5008319;28;20173;-73
2020/12/28 05:22:03;;;;;;;6.18;3.08;;;12.30;61.30;;;;;;5010431;28;20048;-73
2020/12/28 05:24:29;;;;;;;8.07;3.45;;;12.40;61.20;;;;;;5011454;28;20030;-73
2020/12/28 05:26:57;;;;;;;5.65;4.30;;;12.30;61.10;;;;;;5008881;28;20360;-72
2020/12/28 05:29:26;;;;;;;6.53;4.07;;;12.40;61.30;;;;;;5011733;28;20036;-74
2020/12/28 05:31:54;;;;;;;10.30;3.65;;;12.40;61.30;;;;;;5011074;28;20026;-72
2020/12/28 05:34:23;;;;;;;6.22;3.20;;;12.40;61.60;;;;;;5013565;28;20108;-74
2020/12/28 05:36:52;;;;;;;12.00;3.78;;;12.40;62.40;;;;;;5005773;28;20025;-73
2020/12/28 05:39:23;;;;;;;9.90;3.60;;;12.40;62.10;;;;;;5008781;28;20022;-74
2020/12/28 05:42:06;;;;;;;8.77;3.93;;;12.50;61.40;;;;;;5010112;28;20030;-74
2020/12/28 05:44:33;;;;;;;9.55;3.38;;;12.50;61.80;;;;;;5008037;28;20306;-76
2020/12/28 05:47:16;;;;;;;5.93;3.38;;;12.40;61.80;;;;;;5013360;28;20468;-74
2020/12/28 05:49:45;;;;;;;7.32;2.92;;;12.40;62.20;;;;;;5014700;28;20452;-74
2020/12/28 05:52:13;;;;;;;11.10;4.65;;;12.40;63.10;;;;;;5015932;28;20337;-74
2020/12/28 05:54:39;;;;;;;9.60;4.28;;;12.50;61.70;;;;;;5012595;28;20424;-74
2020/12/28 05:57:07;;;;;;;11.05;6.05;;;12.40;62.90;;;;;;5006876;28;20037;-72
2020/12/28 05:59:34;;;;;;;10.05;4.25;;;12.40;62.50;;;;;;5006805;28;20466;-71
2020/12/28 06:02:02;;;;;;;7.38;3.78;;;12.40;62.80;;;;;;5006843;28;20022;-72
2020/12/28 06:04:29;;;;;;;8.35;4.57;;;12.40;62.90;;;;;;5007514;28;20336;-71
2020/12/28 06:07:00;;;;;;;8.90;4.85;;;12.50;63.20;;;;;;5012835;28;20126;-73
2020/12/28 06:09:27;;;;;;;11.15;4.93;;;12.50;63.70;;;;;;5009619;28;20357;-70
2020/12/28 06:12:03;;;;;;;7.70;4.25;;;12.50;63.50;;;;;;5013602;28;20762;-71
2020/12/28 06:14:34;;;;;;;7.35;4.63;;;12.50;64.50;;;;;;5015086;28;20042;-71
2020/12/28 06:17:08;;;;;;;12.45;5.90;;;12.50;63.90;;;;;;5012607;28;20026;-71
2020/12/28 06:19:35;;;;;;;8.68;5.15;;;12.40;65.00;;;;;;5014610;28;20403;-71
2020/12/28 06:22:03;;;;;;;6.22;4.43;;;12.30;65.60;;;;;;5012805;28;20057;-71
2020/12/28 06:24:32;;;;;;;7.90;4.07;;;12.20;66.00;;;;;;5014020;28;20028;-71
2020/12/28 06:27:06;;;;;;;8.55;4.50;;;12.20;65.40;;;;;;5012743;28;20037;-71
2020/12/28 06:29:34;;;;;;;8.55;4.90;;;12.40;64.90;;;;;;5011118;28;20504;-71
2020/12/28 06:32:30;;;;;;;9.50;4.18;;;12.50;64.20;;;;;;5007171;28;20026;-71
2020/12/28 06:35:01;;;;;;;6.32;3.70;;;12.60;64.00;;;;;;5006324;28;20454;-70
2020/12/28 06:37:28;;;;;;;4.82;3.50;;;12.60;64.30;;;;;;5010223;28;20474;-70
2020/12/28 06:39:59;;;;;;;5.82;3.50;;;12.60;63.80;;;;;;5009108;28;20077;-71
2020/12/28 06:42:25;;;;;;;8.80;4.00;;;12.70;64.10;;;;;;5016018;28;20539;-70
2020/12/28 06:44:51;;;;;;;5.85;4.30;;;12.70;64.20;;;;;;5017017;28;20096;-70
2020/12/28 06:47:23;;;;;;;10.32;4.13;;;12.60;63.60;;;;;;5021004;28;20455;-72
2020/12/28 06:49:51;;;;;;;3.97;3.47;;;12.60;62.60;;;;;;5027259;28;20091;-72
2020/12/28 06:52:17;;;;;;;3.22;2.80;;;12.60;63.10;;;;;;5023041;28;20021;-71
2020/12/28 06:54:44;;;;;;;5.85;3.80;;;12.60;63.10;;;;;;5018572;28;20029;-71
2020/12/28 06:57:11;;;;;;;5.50;3.50;;;12.70;63.10;;;;;;5008605;28;20525;-71
2020/12/28 06:59:40;;;;;;;6.72;4.10;;;12.70;63.10;;;;;;5011054;28;20044;-70
2020/12/28 07:02:07;;;;;;;6.18;4.10;;;12.80;62.70;;;;;;5011766;28;20376;-70
2020/12/28 07:04:36;;;;;;;4.82;3.95;;;12.70;62.90;;;;;;5018899;28;20018;-71
2020/12/28 07:07:07;;;;;;;7.75;3.65;;;12.70;62.90;;;;;;5018078;28;20022;-71
2020/12/28 07:09:35;;;;;;;11.45;4.75;;;12.50;62.60;;;;;;5017769;28;20455;-71
2020/12/28 07:12:09;;;;;;;11.20;4.28;;;12.40;63.10;;;;;;5008717;28;20026;-71
2020/12/28 07:14:38;;;;;;;4.15;3.40;;;12.30;63.20;;;;;;5001114;28;20045;-71
2020/12/28 07:17:05;;;;;;;4.13;3.00;;;12.40;63.00;;;;;;5008415;28;20941;-71
2020/12/28 07:19:32;;;;;;;4.13;3.80;;;12.50;63.10;;;;;;5011382;28;20064;-71
2020/12/28 07:21:59;;;;;;;4.50;3.30;;;12.50;63.20;;;;;;5009379;28;20509;-70
2020/12/28 07:24:25;;;;;;;3.20;2.90;;;12.50;63.00;;;;;;5004315;28;20022;-71
2020/12/28 07:26:53;;;;;;;3.63;2.80;;;12.50;62.90;;;;;;5009908;28;20158;-71
2020/12/28 07:29:20;;;;;;;4.15;3.17;;;12.50;62.90;;;;;;5008525;28;20069;-71
2020/12/28 07:31:47;;;;;;;4.00;2.92;;;12.50;62.80;;;;;;5003368;28;20025;-75
2020/12/28 07:34:16;;;;;;;3.47;3.10;;;12.60;62.70;;;;;;5017375;28;20030;-72
2020/12/28 07:36:45;;;;;;;6.78;3.40;;;12.60;62.60;;;;;;5015749;28;20032;-69
2020/12/28 07:39:13;;;;;;;4.60;3.40;;;12.60;62.60;;;;;;5013237;28;20772;-69
2020/12/28 07:41:40;;;;;;;6.00;3.88;;;12.60;63.10;;;;;;5007066;28;20029;-69
2020/12/28 07:44:07;;;;;;;4.40;3.63;;;12.50;62.40;;;;;;5007948;28;20048;-69
2020/12/28 07:46:33;;;;;;;7.70;3.10;;;12.40;62.70;;;;;;5011639;28;20340;-69
2020/12/28 07:49:20;;;;;;;3.50;3.20;;;12.40;62.90;;;;;;5009198;28;20032;-69
2020/12/28 07:51:51;;;;;;;7.00;4.05;;;12.30;62.90;;;;;;5013948;28;20360;-70
2020/12/28 07:54:22;;;;;;;4.75;3.20;;;12.30;62.70;;;;;;5019506;28;20053;-71
2020/12/28 07:56:53;;;;;;;6.03;3.92;;;12.40;62.90;;;;;;5006031;28;20033;-70
2020/12/28 07:59:28;;;;;;;3.92;3.53;;;12.40;62.50;;;;;;5016861;28;20084;-69
2020/12/28 08:01:58;;;;;;;7.25;3.45;;;12.50;62.20;;;;;;5013348;28;20049;-70
2020/12/28 08:04:26;;;;;;;5.13;3.15;;;12.40;62.40;;;;;;5003350;28;20040;-70
2020/12/28 08:07:00;;;;;;;6.07;3.05;;;12.40;62.40;;;;;;5008947;28;20512;-69
2020/12/28 08:09:26;;;;;;;3.05;2.75;;;12.30;62.60;;;;;;5014514;28;20022;-70
2020/12/28 08:12:02;;;;;;;3.50;3.17;;;12.30;62.90;;;;;;5012678;28;20032;-69
2020/12/28 08:14:28;;;;;;;5.93;3.58;;;12.30;62.90;;;;;;5013128;28;20030;-69
2020/12/28 08:16:55;;;;;;;6.47;3.30;;;12.30;62.80;;;;;;5014234;28;20034;-69
2020/12/28 08:19:28;;;;;;;5.50;2.83;;;12.30;62.30;;;;;;5010028;28;20045;-70
2020/12/28 08:21:55;;;;;;;4.20;3.25;;;12.20;63.00;;;;;;5034246;28;20038;-69
2020/12/28 08:24:23;;;;;;;4.45;2.75;;;12.10;63.10;;;;;;5012610;28;20034;-70
2020/12/28 08:26:50;;;;;;;3.65;3.10;;;12.10;63.20;;;;;;5014374;28;20030;-70
2020/12/28 08:29:17;;;;;;;7.82;3.70;;;12.10;63.40;;;;;;5012016;28;20034;-70
2020/12/28 08:31:43;;;;;;;8.55;3.90;;;12.10;63.00;;;;;;5009390;28;20475;-69
2020/12/28 08:34:17;;;;;;;5.15;3.40;;;12.20;62.20;;;;;;5012613;28;20056;-69
2020/12/28 08:36:52;;;;;;;9.25;3.42;;;12.10;62.80;;;;;;5010755;28;20038;-69
2020/12/28 08:39:24;;;;;;;5.60;3.88;;;12.00;62.70;;;;;;5017400;28;20026;-70
2020/12/28 08:41:54;;;;;;;6.70;3.17;;;12.00;63.50;;;;;;5025121;28;20030;-69
2020/12/28 08:44:34;;;;;;;3.95;3.65;;;11.90;63.30;;;;;;5021163;28;20029;-69
2020/12/28 08:47:05;;;;;;;3.35;2.72;;;11.90;63.60;;;;;;5015216;28;20021;-71
2020/12/28 08:49:33;;;;;;;10.77;4.13;;;11.90;63.90;;;;;;5023671;28;20116;-69
2020/12/28 08:52:13;;;;;;;4.22;3.15;;;11.90;63.90;;;;;;5005474;28;20072;-70
2020/12/28 08:54:40;;;;;;;13.93;3.35;;;11.90;63.40;;;;;;5016710;28;20029;-69
2020/12/28 08:57:17;;;;;;;4.50;2.75;;;11.90;63.90;;;;;;5017133;28;20032;-74
2020/12/28 08:59:43;;;;;;;3.67;2.97;;;11.90;64.00;;;;;;5019475;28;20022;-70
2020/12/28 09:02:16;;;;;;;4.95;3.33;;;11.90;64.20;;;;;;5015130;28;20466;-69
2020/12/28 09:04:42;;;;;;;6.35;3.42;;;11.80;64.30;;;;;;5019973;28;20052;-69
2020/12/28 09:07:09;;;;;;;7.68;4.03;;;11.90;63.80;;;;;;5020337;28;20027;-69
2020/12/28 09:09:36;;;;;;;5.85;3.60;;;11.80;64.20;;;;;;5014090;28;20030;-70
2020/12/28 09:12:02;;;;;;;4.18;2.72;;;11.80;64.80;;;;;;5014701;28;20104;-70
2020/12/28 09:14:28;;;;;;;5.05;2.95;;;11.80;65.10;;;;;;5004701;28;20030;-69
2020/12/28 09:16:55;;;;;;;7.10;3.47;;;11.70;65.00;;;;;;5008973;28;20053;-69
2020/12/28 09:19:21;;;;;;;5.60;3.42;;;11.80;64.90;;;;;;5013749;28;20041;-70
2020/12/28 09:21:48;;;;;;;5.63;3.70;;;11.80;65.20;;;;;;5015128;28;20022;-70
2020/12/28 09:24:14;;;;;;;6.93;3.83;;;11.80;65.40;;;;;;5016301;28;20026;-70
2020/12/28 09:26:41;;;;;;;5.00;3.60;;;11.70;65.60;;;;;;5014392;28;20022;-70
2020/12/28 09:29:07;;;;;;;7.95;3.53;;;11.70;65.60;;;;;;5019154;28;20026;-70
2020/12/28 09:31:33;;;;;;;48.60;31.08;;;11.60;65.60;;;;;;5013628;28;20037;-70
2020/12/28 09:34:00;;;;;;;21.35;15.77;;;11.70;64.30;;;;;;5011755;28;20112;-70
2020/12/28 09:36:26;;;;;;;21.17;13.90;;;11.70;65.40;;;;;;5014237;28;20026;-71
2020/12/28 09:38:52;;;;;;;11.77;9.55;;;11.60;66.00;;;;;;5013133;28;20368;-70
2020/12/28 09:41:19;;;;;;;23.02;18.90;;;11.60;66.80;;;;;;5018015;28;20360;-71
2020/12/28 09:43:45;;;;;;;14.75;11.13;;;11.60;65.50;;;;;;5014016;28;20021;-70
2020/12/28 09:46:12;;;;;;;7.60;6.15;;;11.60;65.10;;;;;;5009767;28;20482;-70
2020/12/28 09:48:38;;;;;;;8.70;6.22;;;11.60;66.90;;;;;;5009536;28;20087;-71
2020/12/28 09:51:06;;;;;;;12.85;7.03;;;11.60;65.50;;;;;;5013728;28;20381;-71
2020/12/28 09:53:32;;;;;;;9.50;6.32;;;11.60;67.90;;;;;;5011168;28;20021;-72
2020/12/28 09:55:58;;;;;;;10.23;6.18;;;11.50;69.00;;;;;;5011125;28;20026;-71
2020/12/28 09:58:25;;;;;;;10.27;5.85;;;11.50;69.40;;;;;;5012510;28;20038;-71
2020/12/28 10:00:51;;;;;;;9.07;6.60;;;11.50;68.20;;;;;;5008801;28;20018;-71
2020/12/28 10:03:18;;;;;;;9.20;6.07;;;11.50;69.50;;;;;;5011016;28;20048;-73
2020/12/28 10:05:44;;;;;;;5.63;5.05;;;11.60;69.70;;;;;;5017625;28;20017;-72
2020/12/28 10:08:10;;;;;;;11.55;5.78;;;11.60;69.10;;;;;;5014253;28;20013;-71
2020/12/28 10:10:37;;;;;;;8.13;4.97;;;11.60;69.30;;;;;;5014389;28;20348;-72
2020/12/28 10:13:03;;;;;;;10.13;6.32;;;11.60;70.10;;;;;;5010997;28;20053;-71
2020/12/28 10:15:29;;;;;;;13.07;6.88;;;11.60;69.50;;;;;;5001735;28;20092;-71
2020/12/28 10:18:18;;;;;;;10.82;5.75;;;11.70;68.30;;;;;;5010992;28;20356;-71
2020/12/28 10:20:45;;;;;;;11.75;7.55;;;11.70;67.90;;;;;;5001859;28;20065;-71
2020/12/28 10:23:11;;;;;;;6.82;6.00;;;11.60;69.50;;;;;;5006393;28;20527;-71
2020/12/28 10:25:37;;;;;;;11.55;7.15;;;11.60;69.70;;;;;;5012222;28;20049;-71
2020/12/28 10:28:04;;;;;;;8.30;7.40;;;11.70;69.70;;;;;;5013112;28;20026;-71
2020/12/28 10:30:30;;;;;;;7.53;6.70;;;11.70;69.10;;;;;;5011167;28;20030;-71
2020/12/28 10:32:57;;;;;;;9.65;6.60;;;11.60;70.00;;;;;;5009841;28;20057;-72
2020/12/28 10:35:23;;;;;;;7.15;6.18;;;11.60;69.60;;;;;;5011764;28;20447;-71
2020/12/28 10:37:50;;;;;;;8.10;5.78;;;11.70;69.20;;;;;;5013583;28;20026;-71
2020/12/28 10:40:17;;;;;;;7.68;5.53;;;11.60;69.10;;;;;;5015118;28;20375;-75
2020/12/28 10:42:44;;;;;;;9.50;4.38;;;11.70;68.10;;;;;;5018467;28;20030;-72
2020/12/28 10:45:10;;;;;;;8.85;4.13;;;11.70;68.80;;;;;;5008945;28;20109;-71
2020/12/28 10:47:36;;;;;;;5.70;3.63;;;11.60;69.20;;;;;;5013137;28;20033;-71
2020/12/28 10:50:03;;;;;;;5.93;3.22;;;11.60;67.60;;;;;;5014569;28;20088;-71
2020/12/28 10:52:29;;;;;;;5.93;3.28;;;11.60;67.80;;;;;;5009563;28;20030;-72
2020/12/28 10:54:56;;;;;;;6.80;4.13;;;11.60;67.80;;;;;;5012675;28;20499;-71
2020/12/28 10:57:22;;;;;;;4.63;3.25;;;11.70;65.90;;;;;;5029271;28;20369;-71
2020/12/28 10:59:48;;;;;;;7.55;3.47;;;11.80;65.50;;;;;;5011180;28;20089;-71
2020/12/28 11:02:15;;;;;;;7.82;2.75;;;11.70;66.60;;;;;;5010747;28;20021;-71
2020/12/28 11:04:43;;;;;;;4.63;3.80;;;11.50;69.00;;;;;;5016190;28;20017;-71
2020/12/28 11:07:10;;;;;;;5.50;2.78;;;11.40;68.60;;;;;;5015666;28;20168;-72
2020/12/28 11:09:36;;;;;;;3.20;2.40;;;11.40;69.10;;;;;;5019064;28;20030;-72
2020/12/28 11:12:03;;;;;;;6.88;2.42;;;11.20;69.80;;;;;;5015952;28;20034;-71
2020/12/28 11:14:29;;;;;;;3.15;2.10;;;11.20;69.50;;;;;;5014011;28;20467;-72
2020/12/28 11:16:55;;;;;;;4.25;2.50;;;11.20;69.40;;;;;;5011189;28;20104;-71
2020/12/28 11:19:22;;;;;;;3.38;2.40;;;11.20;69.80;;;;;;5016125;28;20041;-71
2020/12/28 11:21:48;;;;;;;5.72;2.80;;;11.20;69.40;;;;;;5016080;28;20376;-71
2020/12/28 11:24:14;;;;;;;3.78;2.50;;;11.10;70.80;;;;;;5017123;28;20014;-70
2020/12/28 11:26:41;;;;;;;4.30;2.63;;;11.10;69.90;;;;;;5014083;28;20036;-71
2020/12/28 11:29:07;;;;;;;6.50;2.30;;;11.20;69.80;;;;;;5014079;28;20514;-71
2020/12/28 11:31:34;;;;;;;2.45;2.25;;;11.20;69.40;;;;;;5019421;28;20030;-71
2020/12/28 11:34:00;;;;;;;4.40;2.25;;;11.20;69.60;;;;;;5014962;28;20189;-70
2020/12/28 11:36:27;;;;;;;5.97;2.42;;;11.20;69.60;;;;;;5016927;28;20430;-70
2020/12/28 11:38:53;;;;;;;6.50;2.47;;;11.20;69.80;;;;;;5014245;28;20038;-71
2020/12/28 11:41:20;;;;;;;2.38;2.17;;;11.20;69.40;;;;;;5014006;28;20041;-70
2020/12/28 11:43:46;;;;;;;2.85;2.40;;;11.30;69.30;;;;;;5017446;28;20112;-71
2020/12/28 11:46:13;;;;;;;2.35;2.15;;;11.30;69.50;;;;;;5012940;28;20022;-70
2020/12/28 11:48:41;;;;;;;4.20;2.22;;;11.30;69.00;;;;;;5013895;28;20044;-70
2020/12/28 11:51:09;;;;;;;3.03;2.10;;;11.30;69.00;;;;;;5010054;28;20029;-71
2020/12/28 11:53:36;;;;;;;3.45;3.15;;;11.30;69.40;;;;;;5014057;28;20037;-70
2020/12/28 11:56:04;;;;;;;3.47;2.30;;;11.30;69.00;;;;;;5019178;28;20030;-71
2020/12/28 11:58:36;;;;;;;3.95;2.22;;;11.30;68.90;;;;;;5015808;28;20017;-70
2020/12/28 12:01:10;;;;;;;4.03;2.70;;;11.30;69.00;;;;;;5017773;28;20038;-70
2020/12/28 12:03:36;;;;;;;2.85;2.47;;;11.30;68.90;;;;;;5021020;28;20017;-70
2020/12/28 12:06:02;;;;;;;2.83;2.63;;;11.30;68.90;;;;;;5020210;28;20042;-70
2020/12/28 12:08:29;;;;;;;5.75;2.38;;;11.30;69.00;;;;;;5016126;28;20044;-72
2020/12/28 12:10:55;;;;;;;4.70;2.38;;;11.30;69.60;;;;;;5016966;28;20104;-76
2020/12/28 12:13:22;;;;;;;3.70;1.73;;;11.30;70.00;;;;;;5021925;28;20036;-73
2020/12/28 12:15:52;;;;;;;3.50;2.35;;;11.30;70.20;;;;;;5010967;28;20124;-72
2020/12/28 12:18:18;;;;;;;7.30;3.35;;;11.30;70.30;;;;;;5015472;28;20037;-72
2020/12/28 12:20:44;;;;;;;2.75;2.38;;;11.30;70.40;;;;;;5016475;28;20038;-73
2020/12/28 12:23:11;;;;;;;8.07;3.75;;;11.10;72.30;;;;;;5014909;28;20459;-72
2020/12/28 12:25:37;;;;;;;5.10;2.72;;;11.10;71.50;;;;;;5016184;28;20053;-72
2020/12/28 12:28:03;;;;;;;3.50;2.45;;;11.20;70.20;;;;;;5016352;28;20384;-72
2020/12/28 12:30:30;;;;;;;2.70;1.70;;;11.20;70.20;;;;;;5015203;28;20068;-72
2020/12/28 12:33:00;;;;;;;6.90;2.33;;;11.20;70.40;;;;;;5015227;28;20034;-72
2020/12/28 12:35:26;;;;;;;5.90;3.17;;;11.30;68.70;;;;;;5014731;28;20487;-72
2020/12/28 12:37:53;;;;;;;4.85;3.25;;;11.40;67.60;;;;;;5015290;28;20041;-72
2020/12/28 12:40:19;;;;;;;6.05;3.25;;;11.60;68.00;;;;;;5015317;28;20116;-72
2020/12/28 12:42:45;;;;;;;3.75;2.97;;;11.60;67.20;;;;;;5015398;28;20120;-72
2020/12/28 12:45:12;;;;;;;4.05;2.67;;;11.40;69.10;;;;;;5015150;28;20360;-72